createdAt,value
2022-10-22T00:00:03.260Z,8.87
2022-10-22T00:02:31.921Z,8.84
2022-10-22T00:04:58.896Z,8.75
2022-10-22T00:07:25.953Z,8.71
2022-10-22T00:09:52.856Z,8.69
2022-10-22T00:12:20.206Z,8.65
2022-10-22T00:14:47.258Z,8.70
2022-10-22T00:17:14.538Z,8.67
2022-10-22T00:19:41.801Z,8.58
2022-10-22T00:22:10.197Z,8.67
2022-10-22T00:24:39.047Z,8.69
2022-10-22T00:27:07.985Z,8.68
2022-10-22T00:29:34.893Z,8.75
2022-10-22T00:32:02.034Z,8.71
2022-10-22T00:34:28.890Z,8.78
2022-10-22T00:36:56.248Z,8.92
2022-10-22T00:39:26.034Z,8.96
2022-10-22T00:41:55.454Z,9.15
2022-10-22T00:44:59.755Z,9.09
2022-10-22T00:47:31.375Z,9.16
2022-10-22T00:50:00.105Z,9.26
2022-10-22T00:52:27.513Z,9.24
2022-10-22T00:54:54.758Z,9.27
2022-10-22T00:57:22.853Z,9.24
2022-10-22T00:59:50.122Z,9.23
2022-10-22T01:02:17.322Z,9.10
2022-10-22T01:04:44.863Z,9.02
2022-10-22T01:07:20.632Z,9.07
2022-10-22T01:10:03.339Z,9.15
2022-10-22T01:12:45.103Z,9.24
2022-10-22T01:15:14.597Z,9.26
2022-10-22T01:17:52.755Z,9.29
2022-10-22T01:20:58.458Z,9.40
2022-10-22T01:23:43.899Z,9.31
2022-10-22T01:26:21.740Z,9.11
2022-10-22T01:29:10.211Z,9.21
2022-10-22T01:31:44.594Z,9.11
2022-10-22T01:34:16.019Z,8.93
2022-10-22T01:36:44.895Z,8.85
2022-10-22T01:39:15.085Z,8.79
2022-10-22T01:41:45.483Z,8.99
2022-10-22T01:44:29.725Z,9.06
2022-10-22T01:47:17.385Z,9.10
2022-10-22T01:50:05.808Z,9.06
2022-10-22T01:52:38.417Z,9.00
2022-10-22T01:55:28.425Z,9.01
2022-10-22T01:58:38.379Z,8.98
2022-10-22T02:01:17.932Z,8.85
2022-10-22T02:03:58.547Z,8.68
2022-10-22T02:06:27.488Z,8.75
2022-10-22T02:08:55.735Z,8.75
2022-10-22T02:11:22.749Z,8.80
2022-10-22T02:13:53.612Z,8.70
2022-10-22T02:16:32.453Z,8.70
2022-10-22T02:19:03.988Z,8.83
2022-10-22T02:21:31.834Z,8.81
2022-10-22T02:23:59.074Z,8.76
2022-10-22T02:26:33.947Z,8.79
2022-10-22T02:29:25.831Z,8.75
2022-10-22T02:31:55.985Z,8.66
2022-10-22T02:34:27.786Z,8.80
2022-10-22T02:36:55.641Z,8.82
2022-10-22T02:39:23.264Z,8.87
2022-10-22T02:41:50.161Z,8.89
2022-10-22T02:44:21.448Z,8.77
2022-10-22T02:46:49.951Z,8.75
2022-10-22T02:49:16.989Z,8.74
2022-10-22T02:51:43.818Z,8.84
2022-10-22T02:54:10.810Z,8.73
2022-10-22T02:56:37.696Z,8.77
2022-10-22T02:59:04.639Z,8.44
2022-10-22T03:01:31.551Z,8.56
2022-10-22T03:03:58.455Z,8.58
2022-10-22T03:08:57.938Z,8.52
2022-10-22T03:11:24.897Z,8.52
2022-10-22T03:13:51.817Z,8.50
2022-10-22T03:16:18.678Z,8.53
2022-10-22T03:18:45.592Z,8.39
2022-10-22T03:21:21.852Z,8.29
2022-10-22T03:23:49.215Z,8.37
2022-10-22T03:26:16.176Z,8.29
2022-10-22T03:28:43.706Z,8.29
2022-10-22T03:31:10.636Z,8.32
2022-10-22T03:33:37.501Z,8.33
2022-10-22T03:36:04.686Z,8.32
2022-10-22T03:38:31.765Z,8.36
2022-10-22T03:40:59.026Z,8.47
2022-10-22T03:43:26.063Z,8.38
2022-10-22T03:45:52.962Z,8.30
2022-10-22T03:48:20.124Z,8.38
2022-10-22T03:50:46.992Z,8.39
2022-10-22T03:53:13.919Z,8.48
2022-10-22T03:55:41.787Z,8.42
2022-10-22T03:58:08.750Z,8.44
2022-10-22T04:00:36.562Z,8.54
2022-10-22T04:03:04.284Z,8.47
2022-10-22T04:05:33.676Z,8.32
2022-10-22T04:08:00.648Z,8.20
2022-10-22T04:10:27.495Z,8.32
2022-10-22T04:12:54.428Z,8.39
2022-10-22T04:15:21.324Z,8.23
2022-10-22T04:17:48.535Z,8.08
2022-10-22T04:20:15.446Z,8.23
2022-10-22T04:22:42.467Z,8.26
2022-10-22T04:25:09.777Z,8.18
2022-10-22T04:27:36.863Z,8.26
2022-10-22T04:30:06.635Z,8.30
2022-10-22T04:32:33.502Z,8.16
2022-10-22T04:35:00.476Z,8.17
2022-10-22T04:37:27.296Z,8.24
2022-10-22T04:39:54.126Z,8.28
2022-10-22T04:42:20.972Z,8.20
2022-10-22T04:44:47.829Z,8.20
2022-10-22T04:47:14.739Z,8.34
2022-10-22T04:49:41.681Z,8.22
2022-10-22T04:52:08.585Z,8.34
2022-10-22T04:54:35.486Z,8.20
2022-10-22T04:57:02.364Z,8.29
2022-10-22T04:59:29.299Z,8.20
2022-10-22T05:01:56.248Z,8.27
2022-10-22T05:04:23.149Z,8.33
2022-10-22T05:06:50.045Z,8.34
2022-10-22T05:09:19.490Z,8.39
2022-10-22T05:11:49.154Z,8.53
2022-10-22T05:14:19.064Z,8.55
2022-10-22T05:16:48.563Z,8.63
2022-10-22T05:19:24.218Z,8.63
2022-10-22T05:21:53.209Z,8.67
2022-10-22T05:24:20.537Z,8.83
2022-10-22T05:26:53.431Z,8.92
2022-10-22T05:29:21.045Z,8.97
2022-10-22T05:31:48.134Z,9.08
2022-10-22T05:34:15.958Z,9.08
2022-10-22T05:36:42.981Z,9.16
2022-10-22T05:39:10.453Z,9.33
2022-10-22T05:41:37.758Z,9.21
2022-10-22T05:44:05.478Z,9.20
2022-10-22T05:46:36.040Z,9.25
2022-10-22T05:49:05.828Z,9.25
2022-10-22T05:51:34.747Z,9.35
2022-10-22T05:54:04.104Z,9.38
2022-10-22T05:56:35.054Z,9.22
2022-10-22T06:01:38.066Z,9.28
2022-10-22T06:04:07.902Z,9.13
2022-10-22T06:06:44.559Z,9.09
2022-10-22T06:09:26.488Z,9.26
2022-10-22T06:11:54.058Z,9.24
2022-10-22T06:14:21.127Z,9.37
2022-10-22T06:16:49.177Z,9.43
2022-10-22T06:19:17.922Z,9.61
2022-10-22T06:21:45.048Z,9.71
2022-10-22T06:24:12.411Z,9.80
2022-10-22T06:26:39.856Z,10.04
2022-10-22T06:29:07.499Z,10.17
2022-10-22T06:31:37.086Z,10.33
2022-10-22T06:34:10.485Z,10.43
2022-10-22T06:36:37.893Z,10.37
2022-10-22T06:39:05.588Z,10.49
2022-10-22T06:41:32.539Z,10.55
2022-10-22T06:44:00.217Z,10.56
2022-10-22T06:46:27.276Z,10.64
2022-10-22T06:48:57.525Z,10.81
2022-10-22T06:51:25.600Z,10.84
2022-10-22T06:53:53.918Z,10.78
2022-10-22T06:56:23.927Z,10.87
2022-10-22T06:58:51.981Z,11.09
2022-10-22T07:01:21.155Z,11.18
2022-10-22T07:03:50.963Z,11.12
2022-10-22T07:06:18.551Z,11.51
2022-10-22T07:08:45.516Z,11.58
2022-10-22T07:11:18.096Z,11.56
2022-10-22T07:13:45.522Z,11.79
2022-10-22T07:16:13.038Z,11.91
2022-10-22T07:18:41.217Z,12.19
2022-10-22T07:21:09.828Z,12.34
2022-10-22T07:23:37.278Z,12.54
2022-10-22T07:26:07.526Z,12.61
2022-10-22T07:28:36.724Z,12.76
2022-10-22T07:31:03.862Z,12.85
2022-10-22T07:33:30.798Z,12.93
2022-10-22T07:35:59.933Z,12.97
2022-10-22T07:38:27.511Z,12.91
2022-10-22T07:40:55.113Z,13.08
2022-10-22T07:43:22.312Z,13.25
2022-10-22T07:45:49.251Z,12.96
2022-10-22T07:48:16.506Z,13.07
2022-10-22T07:53:11.392Z,13.23
2022-10-22T07:55:38.290Z,13.49
2022-10-22T07:58:05.290Z,13.41
2022-10-22T08:00:32.262Z,13.57
2022-10-22T08:02:59.186Z,13.81
2022-10-22T08:05:26.198Z,13.76
2022-10-22T08:07:53.116Z,14.06
2022-10-22T08:10:20.127Z,13.96
2022-10-22T08:12:47.153Z,14.26
2022-10-22T08:15:14.071Z,14.21
2022-10-22T08:17:41.200Z,14.30
2022-10-22T08:20:08.670Z,14.42
2022-10-22T08:22:35.695Z,14.40
2022-10-22T08:25:02.704Z,14.41
2022-10-22T08:27:29.630Z,14.62
2022-10-22T08:29:56.560Z,14.69
2022-10-22T08:32:23.526Z,14.76
2022-10-22T08:34:50.507Z,14.92
2022-10-22T08:37:17.933Z,15.10
2022-10-22T08:39:45.317Z,15.18
2022-10-22T08:42:33.811Z,15.26
2022-10-22T08:45:14.775Z,15.37
2022-10-22T08:48:08.746Z,15.67
2022-10-22T08:50:48.932Z,15.85
2022-10-22T08:53:20.015Z,16.02
2022-10-22T08:55:47.641Z,15.98
2022-10-22T08:58:40.412Z,16.30
2022-10-22T09:01:15.198Z,16.42
2022-10-22T09:03:46.806Z,16.38
2022-10-22T09:06:25.724Z,16.41
2022-10-22T09:08:53.928Z,16.47
2022-10-22T09:11:39.297Z,16.48
2022-10-22T09:14:09.490Z,16.65
2022-10-22T09:16:36.349Z,16.82
2022-10-22T09:19:12.350Z,17.15
2022-10-22T09:21:46.417Z,17.22
2022-10-22T09:24:37.082Z,17.30
2022-10-22T09:27:16.695Z,16.98
2022-10-22T09:29:44.815Z,16.93
2022-10-22T09:32:11.949Z,16.73
2022-10-22T09:34:39.142Z,16.58
2022-10-22T09:37:10.040Z,16.39
2022-10-22T09:39:41.177Z,16.48
2022-10-22T09:42:08.646Z,16.55
2022-10-22T10:16:27.600Z,15.85
2022-10-22T10:19:10.570Z,16.12
2022-10-22T10:21:56.307Z,16.46
2022-10-22T10:24:23.133Z,16.47
2022-10-22T10:26:58.608Z,16.46
2022-10-22T10:29:25.525Z,16.49
2022-10-22T10:32:07.629Z,16.58
2022-10-22T10:34:53.773Z,16.90
2022-10-22T10:37:29.967Z,16.91
2022-10-22T10:40:28.900Z,16.96
2022-10-22T10:43:05.299Z,16.92
2022-10-22T10:45:42.601Z,17.10
2022-10-22T10:48:12.554Z,16.97
2022-10-22T10:50:55.176Z,16.94
2022-10-22T10:53:27.989Z,16.88
2022-10-22T10:56:22.024Z,16.87
2022-10-22T10:58:54.820Z,16.99
2022-10-22T11:01:27.825Z,17.05
2022-10-22T11:04:31.919Z,17.14
2022-10-22T11:07:11.009Z,17.02
2022-10-22T11:10:14.471Z,17.09
2022-10-22T11:12:48.962Z,17.04
2022-10-22T11:15:18.803Z,17.15
2022-10-22T11:17:48.882Z,17.03
2022-10-22T11:20:41.366Z,17.04
2022-10-22T11:23:20.322Z,17.06
2022-10-22T11:25:49.727Z,17.02
2022-10-22T11:28:19.555Z,17.18
2022-10-22T11:30:53.634Z,17.15
2022-10-22T11:33:25.766Z,17.28
2022-10-22T11:35:53.562Z,17.23
2022-10-22T11:38:26.418Z,17.11
2022-10-22T11:41:13.519Z,17.33
2022-10-22T11:43:55.147Z,17.14
2022-10-22T11:46:22.120Z,17.18
2022-10-22T11:49:13.369Z,17.31
2022-10-22T11:51:42.706Z,17.32
2022-10-22T11:54:29.834Z,17.29
2022-10-22T11:57:22.488Z,17.15
2022-10-22T11:59:56.554Z,17.16
2022-10-22T12:02:29.442Z,17.29
2022-10-22T12:05:20.362Z,17.41
2022-10-22T12:08:00.273Z,17.48
2022-10-22T12:10:37.050Z,17.77
2022-10-22T12:13:24.838Z,17.78
2022-10-22T12:15:57.529Z,17.79
2022-10-22T12:18:31.718Z,17.72
2022-10-22T12:20:58.679Z,17.74
2022-10-22T12:23:30.896Z,17.65
2022-10-22T12:25:58.607Z,17.54
2022-10-22T12:28:25.524Z,17.64
2022-10-22T12:30:52.421Z,17.56
2022-10-22T12:33:24.093Z,17.57
2022-10-22T12:35:54.145Z,17.57
2022-10-22T12:38:24.391Z,17.68
2022-10-22T12:40:54.689Z,17.75
2022-10-22T12:43:29.922Z,17.73
2022-10-22T12:45:59.146Z,17.86
2022-10-22T12:48:34.089Z,17.63
2022-10-22T12:51:04.181Z,17.61
2022-10-22T12:53:35.419Z,17.66
2022-10-22T12:56:05.575Z,17.69
2022-10-22T12:58:42.576Z,17.57
2022-10-22T13:01:14.370Z,17.63
2022-10-22T13:03:47.307Z,17.68
2022-10-22T13:06:23.917Z,17.71
2022-10-22T13:09:00.087Z,17.68
2022-10-22T13:12:01.720Z,17.62
2022-10-22T13:14:32.194Z,17.64
2022-10-22T13:17:12.965Z,17.67
2022-10-22T13:19:44.318Z,17.62
2022-10-22T13:22:26.189Z,17.56
2022-10-22T13:24:54.233Z,17.64
2022-10-22T13:27:21.209Z,17.73
2022-10-22T13:29:48.422Z,17.66
2022-10-22T13:32:31.752Z,17.67
2022-10-22T13:35:01.049Z,17.70
2022-10-22T13:37:30.220Z,17.79
2022-10-22T13:39:57.277Z,17.74
2022-10-22T13:42:25.015Z,17.82
2022-10-22T13:44:51.862Z,17.85
2022-10-22T13:47:29.601Z,17.89
2022-10-22T13:50:00.237Z,17.68
2022-10-22T13:52:40.758Z,17.43
2022-10-22T13:55:25.757Z,17.52
2022-10-22T13:57:55.517Z,17.45
2022-10-22T14:00:26.448Z,17.15
2022-10-22T14:02:57.228Z,17.03
2022-10-22T14:05:24.130Z,16.93
2022-10-22T14:07:52.168Z,16.80
2022-10-22T14:10:22.912Z,16.61
2022-10-22T14:12:53.390Z,16.79
2022-10-22T14:15:27.909Z,16.81
2022-10-22T14:18:00.585Z,16.59
2022-10-22T14:20:33.065Z,16.42
2022-10-22T14:23:20.097Z,16.36
2022-10-22T14:25:47.429Z,16.21
2022-10-22T14:28:14.708Z,16.33
2022-10-22T14:30:41.756Z,16.10
2022-10-22T14:33:22.122Z,16.04
2022-10-22T14:35:51.570Z,16.14
2022-10-22T14:38:18.629Z,16.20
2022-10-22T14:40:45.948Z,15.91
2022-10-22T14:43:31.319Z,16.09
2022-10-22T14:45:58.940Z,16.13
2022-10-22T14:48:25.766Z,16.09
2022-10-22T14:50:52.727Z,16.02
2022-10-22T14:53:19.638Z,16.02
2022-10-22T14:55:49.242Z,15.92
2022-10-22T14:58:16.466Z,15.96
2022-10-22T15:00:44.313Z,15.85
2022-10-22T15:03:11.910Z,15.71
2022-10-22T15:05:44.603Z,15.86
2022-10-22T15:08:13.696Z,15.87
2022-10-22T15:10:41.615Z,15.90
2022-10-22T15:13:09.201Z,15.80
2022-10-22T15:15:39.530Z,15.79
2022-10-22T15:18:07.524Z,15.90
2022-10-22T15:20:34.423Z,16.01
2022-10-22T15:23:01.418Z,15.93
2022-10-22T15:25:28.884Z,15.96
2022-10-22T15:28:00.674Z,15.92
2022-10-22T15:30:28.901Z,15.97
2022-10-22T15:32:55.772Z,15.85
2022-10-22T15:35:22.684Z,15.84
2022-10-22T15:37:51.926Z,15.87
2022-10-22T15:40:18.866Z,15.70
2022-10-22T15:42:46.742Z,15.73
2022-10-22T15:45:13.842Z,15.70
2022-10-22T15:47:41.020Z,15.68
2022-10-22T15:50:08.629Z,15.55
2022-10-22T15:52:35.683Z,15.46
2022-10-22T15:55:07.159Z,15.33
2022-10-22T15:57:34.070Z,15.32
2022-10-22T16:00:00.945Z,15.36
2022-10-22T16:02:27.826Z,15.26
2022-10-22T16:04:54.735Z,15.32
2022-10-22T16:07:23.988Z,15.20
2022-10-22T16:09:55.031Z,15.10
2022-10-22T16:12:21.953Z,15.13
2022-10-22T16:14:52.657Z,14.92
2022-10-22T16:17:19.501Z,14.94
2022-10-22T16:19:48.277Z,14.92
2022-10-22T16:22:15.851Z,14.72
2022-10-22T16:24:43.106Z,14.70
2022-10-22T16:27:10.733Z,14.69
2022-10-22T16:29:39.001Z,14.77
2022-10-22T16:32:06.553Z,14.72
2022-10-22T16:34:33.442Z,14.72
2022-10-22T16:37:00.485Z,14.70
2022-10-22T16:39:27.430Z,14.66
2022-10-22T16:41:54.429Z,14.55
2022-10-22T16:44:21.327Z,14.49
2022-10-22T16:46:48.349Z,14.45
2022-10-22T16:49:15.206Z,14.49
2022-10-22T16:51:42.108Z,14.45
2022-10-22T16:54:12.623Z,14.35
2022-10-22T16:56:39.696Z,14.44
2022-10-22T16:59:07.067Z,14.40
2022-10-22T17:01:36.883Z,14.48
2022-10-22T17:04:07.584Z,14.41
2022-10-22T17:06:34.489Z,14.40
2022-10-22T17:09:01.493Z,14.46
2022-10-22T17:11:34.732Z,14.44
2022-10-22T17:14:02.706Z,14.52
2022-10-22T17:16:30.194Z,14.47
2022-10-22T17:18:58.244Z,14.66
2022-10-22T17:21:25.432Z,14.55
2022-10-22T17:23:56.946Z,14.52
2022-10-22T17:26:27.215Z,14.50
2022-10-22T17:28:55.110Z,14.63
2022-10-22T17:31:23.758Z,14.62
2022-10-22T17:33:52.551Z,14.55
2022-10-22T17:36:20.889Z,14.51
2022-10-22T17:38:50.374Z,14.58
2022-10-22T17:41:20.275Z,14.46
2022-10-22T17:43:47.837Z,14.43
2022-10-22T17:46:17.676Z,14.43
2022-10-22T17:48:44.893Z,14.49
2022-10-22T17:51:13.638Z,14.37
2022-10-22T17:53:43.142Z,14.42
2022-10-22T17:56:12.401Z,14.42
2022-10-22T17:58:39.286Z,14.35
2022-10-22T18:01:06.647Z,14.42
2022-10-22T18:03:34.516Z,14.50
2022-10-22T18:06:07.419Z,14.62
2022-10-22T18:08:34.696Z,14.47
2022-10-22T18:11:10.088Z,14.50
2022-10-22T18:13:37.681Z,14.51
2022-10-22T18:16:04.894Z,14.49
2022-10-22T18:18:31.918Z,14.45
2022-10-22T18:21:00.594Z,14.51
2022-10-22T18:23:28.238Z,14.57
2022-10-22T18:25:55.199Z,14.51
2022-10-22T18:28:22.205Z,14.56
2022-10-22T18:30:49.661Z,14.48
2022-10-22T18:33:19.429Z,14.45
2022-10-22T18:35:46.845Z,14.60
2022-10-22T18:38:13.860Z,14.60
2022-10-22T18:40:46.949Z,14.55
2022-10-22T18:43:15.132Z,14.49
2022-10-22T18:45:46.840Z,14.65
2022-10-22T18:48:16.173Z,14.66
2022-10-22T18:50:43.629Z,14.75
2022-10-22T18:53:10.724Z,14.72
2022-10-22T18:55:39.671Z,14.60
2022-10-22T18:58:07.144Z,14.43
2022-10-22T19:00:35.809Z,14.38
2022-10-22T19:03:03.397Z,14.54
2022-10-22T19:05:30.778Z,14.54
2022-10-22T19:07:57.833Z,14.41
2022-10-22T19:10:24.707Z,14.66
2022-10-22T19:12:51.682Z,14.78
2022-10-22T19:15:18.625Z,14.84
2022-10-22T19:17:45.713Z,14.88
2022-10-22T19:20:13.391Z,14.84
2022-10-22T19:22:40.280Z,14.91
2022-10-22T19:25:11.158Z,14.92
2022-10-22T19:27:40.168Z,14.70
2022-10-22T19:30:07.756Z,14.95
2022-10-22T19:32:34.954Z,14.92
2022-10-22T19:35:02.114Z,15.07
2022-10-22T19:37:29.033Z,14.90
2022-10-22T19:39:55.873Z,15.06
2022-10-22T19:42:22.797Z,15.05
2022-10-22T19:44:49.729Z,15.17
2022-10-22T19:47:16.871Z,15.26
2022-10-22T19:49:43.903Z,14.99
2022-10-22T19:52:10.844Z,15.09
2022-10-22T19:54:40.895Z,15.21
2022-10-22T19:57:08.621Z,15.21
2022-10-22T19:59:35.752Z,15.14
2022-10-22T20:02:04.073Z,14.98
2022-10-22T20:04:31.267Z,14.98
2022-10-22T20:06:58.723Z,15.06
2022-10-22T20:09:25.687Z,15.17
2022-10-22T20:11:52.580Z,15.15
2022-10-22T20:14:19.447Z,15.31
2022-10-22T20:16:46.468Z,15.34
2022-10-22T20:19:16.277Z,15.37
2022-10-22T20:21:44.669Z,15.46
2022-10-22T20:24:12.822Z,15.48
2022-10-22T20:26:39.725Z,15.44
2022-10-22T20:29:07.798Z,15.37
2022-10-22T20:31:36.047Z,15.20
2022-10-22T20:34:03.021Z,15.31
2022-10-22T20:36:31.852Z,15.28
2022-10-22T20:39:06.398Z,15.33
2022-10-22T20:41:35.034Z,15.42
2022-10-22T20:44:01.994Z,15.48
2022-10-22T20:46:31.344Z,15.38
2022-10-22T20:49:07.391Z,15.33
2022-10-22T20:51:36.208Z,15.36
2022-10-22T20:54:03.973Z,15.43
2022-10-22T20:56:31.781Z,15.49
2022-10-22T20:59:05.533Z,15.43
2022-10-22T21:01:44.579Z,15.22
2022-10-22T21:04:11.568Z,15.25
2022-10-22T21:06:40.361Z,15.25
2022-10-22T21:09:08.782Z,15.28
2022-10-22T21:11:36.817Z,15.26
2022-10-22T21:14:05.682Z,15.22
2022-10-22T21:16:32.657Z,15.16
2022-10-22T21:19:00.067Z,15.17
2022-10-22T21:21:27.049Z,15.23
2022-10-22T21:23:54.495Z,15.07
2022-10-22T21:26:21.630Z,15.06
2022-10-22T21:28:49.129Z,15.14
2022-10-22T21:31:21.977Z,15.09
2022-10-22T21:33:50.613Z,14.90
2022-10-22T21:36:22.481Z,15.04
2022-10-22T21:38:51.463Z,14.91
2022-10-22T21:41:19.783Z,14.67
2022-10-22T21:43:46.756Z,14.57
2022-10-22T21:46:19.320Z,14.52
2022-10-22T21:48:46.932Z,14.56
2022-10-22T21:51:16.995Z,14.62
2022-10-22T21:53:44.134Z,14.74
2022-10-22T21:56:18.111Z,14.81
2022-10-22T21:58:45.216Z,14.91
2022-10-22T22:01:12.934Z,14.96
2022-10-22T22:03:46.019Z,14.76
2022-10-22T22:06:13.193Z,14.76
2022-10-22T22:08:40.768Z,14.71
2022-10-22T22:11:13.823Z,14.81
2022-10-22T22:13:40.972Z,14.75
2022-10-22T22:16:16.225Z,14.78
2022-10-22T22:18:43.435Z,14.78
2022-10-22T22:21:13.378Z,14.87
2022-10-22T22:23:43.017Z,14.88
2022-10-22T22:26:10.997Z,14.85
2022-10-22T22:28:38.593Z,14.95
2022-10-22T22:31:22.119Z,14.86
2022-10-22T22:33:49.385Z,14.98
2022-10-22T22:36:16.380Z,15.03
2022-10-22T22:38:43.226Z,15.04
2022-10-22T22:41:10.121Z,15.01
2022-10-22T22:43:37.887Z,14.97
2022-10-22T22:46:07.743Z,14.95
2022-10-22T22:48:35.278Z,14.92
2022-10-22T22:51:04.068Z,14.91
2022-10-22T22:53:31.762Z,14.87
2022-10-22T22:56:13.999Z,14.57
2022-10-22T22:58:41.928Z,14.25
2022-10-22T23:01:29.806Z,14.06
2022-10-22T23:03:59.868Z,14.02
2022-10-22T23:06:29.372Z,13.71
2022-10-22T23:08:58.130Z,13.58
2022-10-22T23:11:26.322Z,13.29
2022-10-22T23:13:55.580Z,13.20
2022-10-22T23:16:24.667Z,13.27
2022-10-22T23:18:54.131Z,13.32
2022-10-22T23:21:26.974Z,13.15
2022-10-22T23:23:57.187Z,12.98
2022-10-22T23:26:45.828Z,12.88
2022-10-22T23:29:19.548Z,12.90
2022-10-22T23:31:47.278Z,13.08
2022-10-22T23:34:17.483Z,13.17
2022-10-22T23:36:45.169Z,13.38
2022-10-22T23:39:14.620Z,13.47
2022-10-22T23:41:41.707Z,13.49
2022-10-22T23:44:09.882Z,13.69
2022-10-22T23:46:40.455Z,13.94
2022-10-22T23:49:09.391Z,14.17
2022-10-22T23:51:36.505Z,14.31
2022-10-22T23:54:06.501Z,14.42
2022-10-22T23:56:36.144Z,14.56
2022-10-22T23:59:04.135Z,14.67
